sensor_id;sensor_type;location;lat;lon;timestamp;noise_LAeq;noise_LA_min;noise_LA_max;noise_LA01;noise_LA95
4048;Laerm;2038;51.728;6.674;2023-01-20T00:01:46;42.50;40.33;43.94;;
4048;Laerm;2038;51.728;6.674;2023-01-20T00:04:13;42.53;40.71;43.99;;
4048;Laerm;2038;51.728;6.674;2023-01-20T00:06:40;42.50;40.53;43.90;;
4048;Laerm;2038;51.728;6.674;2023-01-20T00:09:07;42.51;40.23;44.47;;
4048;Laerm;2038;51.728;6.674;2023-01-20T00:11:33;42.49;40.43;43.86;;
4048;Laerm;2038;51.728;6.674;2023-01-20T00:14:01;42.43;40.27;43.86;;
4048;Laerm;2038;51.728;6.674;2023-01-20T00:16:29;42.45;40.23;44.23;;
4048;Laerm;2038;51.728;6.674;2023-01-20T00:18:57;42.47;40.53;43.81;;
4048;Laerm;2038;51.728;6.674;2023-01-20T00:21:24;42.48;40.53;43.94;;
4048;Laerm;2038;51.728;6.674;2023-01-20T00:23:50;42.72;40.43;48.94;;
4048;Laerm;2038;51.728;6.674;2023-01-20T00:26:19;42.47;40.43;44.03;;
4048;Laerm;2038;51.728;6.674;2023-01-20T00:28:47;42.50;40.53;43.81;;
4048;Laerm;2038;51.728;6.674;2023-01-20T00:31:20;42.47;40.62;43.90;;
4048;Laerm;2038;51.728;6.674;2023-01-20T00:33:50;42.51;40.13;43.94;;
4048;Laerm;2038;51.728;6.674;2023-01-20T00:36:18;42.48;40.33;44.23;;
4048;Laerm;2038;51.728;6.674;2023-01-20T00:38:45;42.44;40.13;44.07;;
4048;Laerm;2038;51.728;6.674;2023-01-20T00:41:12;42.42;40.53;43.86;;
4048;Laerm;2038;51.728;6.674;2023-01-20T00:43:39;42.39;40.03;43.81;;
4048;Laerm;2038;51.728;6.674;2023-01-20T00:46:06;42.38;39.70;43.94;;
4048;Laerm;2038;51.728;6.674;2023-01-20T00:48:33;42.38;40.53;44.07;;
4048;Laerm;2038;51.728;6.674;2023-01-20T00:51:00;42.45;40.53;43.77;;
4048;Laerm;2038;51.728;6.674;2023-01-20T00:53:26;42.43;40.03;43.94;;
4048;Laerm;2038;51.728;6.674;2023-01-20T00:55:53;42.43;40.23;44.39;;
4048;Laerm;2038;51.728;6.674;2023-01-20T00:58:19;42.46;40.33;43.77;;
4048;Laerm;2038;51.728;6.674;2023-01-20T01:00:51;42.43;40.33;43.86;;
4048;Laerm;2038;51.728;6.674;2023-01-20T01:03:18;42.47;40.13;44.07;;
4048;Laerm;2038;51.728;6.674;2023-01-20T01:05:44;42.49;40.13;43.94;;
4048;Laerm;2038;51.728;6.674;2023-01-20T01:08:11;42.48;40.53;44.07;;
4048;Laerm;2038;51.728;6.674;2023-01-20T01:10:38;42.44;40.43;43.81;;
4048;Laerm;2038;51.728;6.674;2023-01-20T01:13:06;42.46;40.03;43.81;;
4048;Laerm;2038;51.728;6.674;2023-01-20T01:15:32;42.46;40.62;44.03;;
4048;Laerm;2038;51.728;6.674;2023-01-20T01:17:59;42.44;40.43;44.15;;
4048;Laerm;2038;51.728;6.674;2023-01-20T01:20:27;42.46;40.43;44.03;;
4048;Laerm;2038;51.728;6.674;2023-01-20T01:22:53;42.40;40.13;43.77;;
4048;Laerm;2038;51.728;6.674;2023-01-20T01:25:20;42.43;40.43;43.81;;
4048;Laerm;2038;51.728;6.674;2023-01-20T01:27:46;42.45;40.62;44.11;;
4048;Laerm;2038;51.728;6.674;2023-01-20T01:30:12;42.41;40.62;44.03;;
4048;Laerm;2038;51.728;6.674;2023-01-20T01:32:39;45.31;40.45;60.24;;
4048;Laerm;2038;51.728;6.674;2023-01-20T01:35:05;42.45;40.13;43.99;;
4048;Laerm;2038;51.728;6.674;2023-01-20T01:37:32;42.52;40.53;44.11;;
4048;Laerm;2038;51.728;6.674;2023-01-20T01:39:58;42.54;40.13;44.03;;
4048;Laerm;2038;51.728;6.674;2023-01-20T01:42:25;42.55;40.53;43.86;;
4048;Laerm;2038;51.728;6.674;2023-01-20T01:48:03;42.50;40.23;44.03;;
4048;Laerm;2038;51.728;6.674;2023-01-20T01:50:46;42.47;40.43;43.94;;
4048;Laerm;2038;51.728;6.674;2023-01-20T01:53:14;42.69;40.43;47.22;;
4048;Laerm;2038;51.728;6.674;2023-01-20T01:55:50;42.69;40.43;46.77;;
4048;Laerm;2038;51.728;6.674;2023-01-20T01:58:23;42.91;40.23;55.57;;
4048;Laerm;2038;51.728;6.674;2023-01-20T02:00:52;42.35;40.23;43.90;;
4048;Laerm;2038;51.728;6.674;2023-01-20T02:03:19;42.34;40.13;43.86;;
4048;Laerm;2038;51.728;6.674;2023-01-20T02:05:47;42.36;39.92;44.03;;
4048;Laerm;2038;51.728;6.674;2023-01-20T02:08:15;42.37;40.43;43.77;;
4048;Laerm;2038;51.728;6.674;2023-01-20T02:10:42;42.32;40.43;43.72;;
4048;Laerm;2038;51.728;6.674;2023-01-20T02:13:08;42.66;39.46;50.84;;
4048;Laerm;2038;51.728;6.674;2023-01-20T02:20:05;42.46;40.23;44.03;;
4048;Laerm;2038;51.728;6.674;2023-01-20T02:22:49;42.74;40.62;50.27;;
4048;Laerm;2038;51.728;6.674;2023-01-20T02:29:30;42.38;40.03;43.94;;
4048;Laerm;2038;51.728;6.674;2023-01-20T02:35:21;42.61;40.23;51.59;;
4048;Laerm;2038;51.728;6.674;2023-01-20T02:38:49;42.46;40.71;44.23;;
4048;Laerm;2038;51.728;6.674;2023-01-20T02:41:42;42.45;40.43;43.90;;
4048;Laerm;2038;51.728;6.674;2023-01-20T02:44:23;42.56;40.13;44.47;;
4048;Laerm;2038;51.728;6.674;2023-01-20T02:46:58;44.19;40.53;58.12;;
4048;Laerm;2038;51.728;6.674;2023-01-20T02:49:53;42.51;40.33;44.19;;
4048;Laerm;2038;51.728;6.674;2023-01-20T02:52:26;42.58;39.81;44.62;;
4048;Laerm;2038;51.728;6.674;2023-01-20T02:54:57;42.51;40.33;44.11;;
4048;Laerm;2038;51.728;6.674;2023-01-20T02:57:31;44.13;40.53;58.18;;
4048;Laerm;2038;51.728;6.674;2023-01-20T03:00:08;42.63;40.43;44.89;;
4048;Laerm;2038;51.728;6.674;2023-01-20T03:02:40;43.95;40.23;57.29;;
4048;Laerm;2038;51.728;6.674;2023-01-20T03:05:14;43.38;40.53;54.16;;
4048;Laerm;2038;51.728;6.674;2023-01-20T03:07:44;42.48;40.43;44.11;;
4048;Laerm;2038;51.728;6.674;2023-01-20T03:10:17;42.51;40.43;44.35;;
4048;Laerm;2038;51.728;6.674;2023-01-20T03:12:55;42.53;40.43;43.94;;
4048;Laerm;2038;51.728;6.674;2023-01-20T03:15:39;43.12;40.53;52.83;;
4048;Laerm;2038;51.728;6.674;2023-01-20T03:18:07;42.71;40.71;44.19;;
4048;Laerm;2038;51.728;6.674;2023-01-20T03:20:35;43.72;40.53;57.00;;
4048;Laerm;2038;51.728;6.674;2023-01-20T03:23:01;42.67;40.80;44.15;;
4048;Laerm;2038;51.728;6.674;2023-01-20T03:25:27;43.27;40.88;56.29;;
4048;Laerm;2038;51.728;6.674;2023-01-20T03:27:54;42.62;40.89;43.86;;
4048;Laerm;2038;51.728;6.674;2023-01-20T03:30:20;43.86;40.53;56.76;;
4048;Laerm;2038;51.728;6.674;2023-01-20T03:32:50;42.83;40.43;48.07;;
4048;Laerm;2038;51.728;6.674;2023-01-20T03:35:18;43.36;40.43;52.86;;
4048;Laerm;2038;51.728;6.674;2023-01-20T03:37:44;42.68;40.53;44.03;;
4048;Laerm;2038;51.728;6.674;2023-01-20T03:40:12;46.91;40.98;61.92;;
4048;Laerm;2038;51.728;6.674;2023-01-20T03:43:10;45.26;40.53;60.87;;
4048;Laerm;2038;51.728;6.674;2023-01-20T03:46:26;42.93;40.43;52.33;;
4048;Laerm;2038;51.728;6.674;2023-01-20T03:49:28;43.38;40.33;59.52;;
4048;Laerm;2038;51.728;6.674;2023-01-20T03:52:08;42.93;40.33;52.42;;
4048;Laerm;2038;51.728;6.674;2023-01-20T03:54:56;45.50;40.43;60.35;;
4048;Laerm;2038;51.728;6.674;2023-01-20T03:57:36;43.52;39.92;54.45;;
4048;Laerm;2038;51.728;6.674;2023-01-20T04:00:08;47.26;40.33;66.56;;
4048;Laerm;2038;51.728;6.674;2023-01-20T04:02:37;43.74;40.53;57.76;;
4048;Laerm;2038;51.728;6.674;2023-01-20T04:05:07;43.90;40.71;54.29;;
4048;Laerm;2038;51.728;6.674;2023-01-20T04:07:38;43.94;40.33;56.53;;
4048;Laerm;2038;51.728;6.674;2023-01-20T04:10:10;44.70;40.53;57.41;;
4048;Laerm;2038;51.728;6.674;2023-01-20T04:12:37;43.29;39.89;52.66;;
4048;Laerm;2038;51.728;6.674;2023-01-20T04:15:06;45.02;40.43;55.93;;
4048;Laerm;2038;51.728;6.674;2023-01-20T04:17:33;42.82;40.62;51.76;;
4048;Laerm;2038;51.728;6.674;2023-01-20T04:20:06;43.16;40.53;53.49;;
4048;Laerm;2038;51.728;6.674;2023-01-20T04:22:55;42.60;40.03;44.27;;
4048;Laerm;2038;51.728;6.674;2023-01-20T04:25:30;44.41;40.33;56.21;;
4048;Laerm;2038;51.728;6.674;2023-01-20T04:27:56;43.11;40.53;52.68;;
4048;Laerm;2038;51.728;6.674;2023-01-20T04:30:23;43.47;40.23;54.73;;
4048;Laerm;2038;51.728;6.674;2023-01-20T04:32:49;45.12;40.53;59.23;;
4048;Laerm;2038;51.728;6.674;2023-01-20T04:35:18;45.03;40.54;55.32;;
4048;Laerm;2038;51.728;6.674;2023-01-20T04:37:45;44.33;40.71;53.93;;
4048;Laerm;2038;51.728;6.674;2023-01-20T04:40:11;43.91;41.06;54.62;;
4048;Laerm;2038;51.728;6.674;2023-01-20T04:42:38;44.64;40.71;58.75;;
4048;Laerm;2038;51.728;6.674;2023-01-20T04:45:04;45.48;40.71;58.09;;
4048;Laerm;2038;51.728;6.674;2023-01-20T04:47:34;45.22;40.71;57.99;;
4048;Laerm;2038;51.728;6.674;2023-01-20T04:50:00;43.31;39.92;52.30;;
4048;Laerm;2038;51.728;6.674;2023-01-20T04:52:26;45.48;40.54;57.64;;
4048;Laerm;2038;51.728;6.674;2023-01-20T04:54:53;44.26;40.53;55.09;;
4048;Laerm;2038;51.728;6.674;2023-01-20T04:57:19;47.24;40.33;62.81;;
4048;Laerm;2038;51.728;6.674;2023-01-20T04:59:45;43.32;40.43;52.53;;
4048;Laerm;2038;51.728;6.674;2023-01-20T05:02:11;42.82;40.43;52.09;;
4048;Laerm;2038;51.728;6.674;2023-01-20T05:04:37;44.58;40.33;56.04;;
4048;Laerm;2038;51.728;6.674;2023-01-20T05:07:04;45.45;40.03;62.05;;
4048;Laerm;2038;51.728;6.674;2023-01-20T05:09:30;44.13;40.23;56.17;;
4048;Laerm;2038;51.728;6.674;2023-01-20T05:11:56;44.43;40.33;58.29;;
4048;Laerm;2038;51.728;6.674;2023-01-20T05:14:22;48.15;40.23;63.69;;
4048;Laerm;2038;51.728;6.674;2023-01-20T05:16:49;45.54;40.33;57.36;;
4048;Laerm;2038;51.728;6.674;2023-01-20T05:19:15;44.76;40.62;55.69;;
4048;Laerm;2038;51.728;6.674;2023-01-20T05:21:41;47.80;40.43;60.24;;
4048;Laerm;2038;51.728;6.674;2023-01-20T05:24:08;45.62;40.23;58.26;;
4048;Laerm;2038;51.728;6.674;2023-01-20T05:26:35;44.92;40.53;55.65;;
4048;Laerm;2038;51.728;6.674;2023-01-20T05:29:01;43.98;40.23;55.30;;
4048;Laerm;2038;51.728;6.674;2023-01-20T05:31:28;43.70;40.33;54.73;;
4048;Laerm;2038;51.728;6.674;2023-01-20T05:33:54;44.98;40.43;58.16;;
4048;Laerm;2038;51.728;6.674;2023-01-20T05:36:21;44.56;40.36;55.87;;
4048;Laerm;2038;51.728;6.674;2023-01-20T05:38:47;45.36;40.71;55.71;;
4048;Laerm;2038;51.728;6.674;2023-01-20T05:41:13;45.98;40.71;56.96;;
4048;Laerm;2038;51.728;6.674;2023-01-20T05:43:39;47.77;40.23;62.09;;
4048;Laerm;2038;51.728;6.674;2023-01-20T05:46:06;45.63;40.33;58.69;;
4048;Laerm;2038;51.728;6.674;2023-01-20T05:48:32;43.88;40.53;54.68;;
4048;Laerm;2038;51.728;6.674;2023-01-20T05:50:58;46.94;40.71;57.12;;
4048;Laerm;2038;51.728;6.674;2023-01-20T05:53:25;46.55;40.53;59.34;;
4048;Laerm;2038;51.728;6.674;2023-01-20T05:56:02;45.48;40.62;61.20;;
4048;Laerm;2038;51.728;6.674;2023-01-20T05:58:29;46.29;40.23;65.80;;
4048;Laerm;2038;51.728;6.674;2023-01-20T06:01:08;46.14;40.53;59.20;;
4048;Laerm;2038;51.728;6.674;2023-01-20T06:03:36;45.62;40.62;56.86;;
4048;Laerm;2038;51.728;6.674;2023-01-20T06:06:05;45.02;40.23;56.36;;
4048;Laerm;2038;51.728;6.674;2023-01-20T06:08:33;47.07;40.08;61.29;;
4048;Laerm;2038;51.728;6.674;2023-01-20T06:10:59;45.23;40.53;54.72;;
4048;Laerm;2038;51.728;6.674;2023-01-20T06:13:26;45.86;40.23;55.82;;
4048;Laerm;2038;51.728;6.674;2023-01-20T06:15:53;45.18;40.43;56.45;;
4048;Laerm;2038;51.728;6.674;2023-01-20T06:18:21;45.38;40.80;54.84;;
4048;Laerm;2038;51.728;6.674;2023-01-20T06:20:48;45.11;40.23;54.88;;
4048;Laerm;2038;51.728;6.674;2023-01-20T06:23:14;45.69;40.03;54.26;;
4048;Laerm;2038;51.728;6.674;2023-01-20T06:25:41;45.46;39.92;59.21;;
4048;Laerm;2038;51.728;6.674;2023-01-20T06:28:08;47.11;40.62;59.58;;
4048;Laerm;2038;51.728;6.674;2023-01-20T06:30:34;46.58;40.43;56.81;;
4048;Laerm;2038;51.728;6.674;2023-01-20T06:33:01;45.68;39.34;55.66;;
4048;Laerm;2038;51.728;6.674;2023-01-20T06:35:27;44.20;39.92;54.27;;
4048;Laerm;2038;51.728;6.674;2023-01-20T06:37:57;45.50;40.43;55.12;;
4048;Laerm;2038;51.728;6.674;2023-01-20T06:40:23;45.33;40.23;58.27;;
4048;Laerm;2038;51.728;6.674;2023-01-20T06:42:50;45.78;40.62;56.05;;
4048;Laerm;2038;51.728;6.674;2023-01-20T06:45:16;44.28;40.43;65.69;;
4048;Laerm;2038;51.728;6.674;2023-01-20T06:47:42;46.44;40.33;55.34;;
4048;Laerm;2038;51.728;6.674;2023-01-20T06:50:09;44.95;40.23;55.15;;
4048;Laerm;2038;51.728;6.674;2023-01-20T06:52:35;45.80;40.23;55.94;;
4048;Laerm;2038;51.728;6.674;2023-01-20T06:55:01;45.79;40.53;56.05;;
4048;Laerm;2038;51.728;6.674;2023-01-20T06:57:27;48.11;40.03;59.88;;
4048;Laerm;2038;51.728;6.674;2023-01-20T06:59:53;44.74;40.43;55.41;;
4048;Laerm;2038;51.728;6.674;2023-01-20T07:02:20;45.73;40.43;56.07;;
4048;Laerm;2038;51.728;6.674;2023-01-20T07:04:46;44.19;40.33;55.85;;
4048;Laerm;2038;51.728;6.674;2023-01-20T07:07:13;44.47;40.53;55.83;;
4048;Laerm;2038;51.728;6.674;2023-01-20T07:09:39;43.94;40.13;54.46;;
4048;Laerm;2038;51.728;6.674;2023-01-20T07:12:05;46.28;40.03;60.58;;
4048;Laerm;2038;51.728;6.674;2023-01-20T07:14:31;45.23;40.33;53.91;;
4048;Laerm;2038;51.728;6.674;2023-01-20T07:16:58;48.51;40.13;62.14;;
4048;Laerm;2038;51.728;6.674;2023-01-20T07:19:24;45.25;39.81;55.40;;
4048;Laerm;2038;51.728;6.674;2023-01-20T07:21:50;47.63;40.71;61.68;;
4048;Laerm;2038;51.728;6.674;2023-01-20T07:24:16;46.49;40.43;58.25;;
4048;Laerm;2038;51.728;6.674;2023-01-20T07:26:42;45.22;40.43;56.54;;
4048;Laerm;2038;51.728;6.674;2023-01-20T07:29:09;45.52;40.33;57.57;;
4048;Laerm;2038;51.728;6.674;2023-01-20T07:31:35;44.94;40.13;59.27;;
4048;Laerm;2038;51.728;6.674;2023-01-20T07:34:02;44.21;40.13;56.15;;
4048;Laerm;2038;51.728;6.674;2023-01-20T07:36:28;45.62;40.43;60.70;;
4048;Laerm;2038;51.728;6.674;2023-01-20T07:39:10;46.65;40.62;58.74;;
4048;Laerm;2038;51.728;6.674;2023-01-20T07:41:38;44.09;40.43;55.91;;
4048;Laerm;2038;51.728;6.674;2023-01-20T07:44:04;44.76;40.53;56.30;;
4048;Laerm;2038;51.728;6.674;2023-01-20T07:46:30;46.91;40.53;60.88;;
4048;Laerm;2038;51.728;6.674;2023-01-20T07:48:57;44.25;40.23;56.97;;
4048;Laerm;2038;51.728;6.674;2023-01-20T07:51:23;47.86;40.71;63.12;;
4048;Laerm;2038;51.728;6.674;2023-01-20T07:53:49;44.55;39.92;58.32;;
4048;Laerm;2038;51.728;6.674;2023-01-20T07:56:24;44.72;40.43;55.27;;
4048;Laerm;2038;51.728;6.674;2023-01-20T07:58:50;47.76;40.53;59.58;;
4048;Laerm;2038;51.728;6.674;2023-01-20T08:01:24;45.50;40.43;57.99;;
4048;Laerm;2038;51.728;6.674;2023-01-20T08:03:51;46.22;40.62;57.77;;
4048;Laerm;2038;51.728;6.674;2023-01-20T08:06:21;48.43;40.71;62.45;;
4048;Laerm;2038;51.728;6.674;2023-01-20T08:08:48;44.92;40.33;59.66;;
4048;Laerm;2038;51.728;6.674;2023-01-20T08:11:18;44.92;40.23;59.46;;
4048;Laerm;2038;51.728;6.674;2023-01-20T08:13:44;45.19;40.62;54.86;;
4048;Laerm;2038;51.728;6.674;2023-01-20T08:16:14;45.31;40.62;53.63;;
4048;Laerm;2038;51.728;6.674;2023-01-20T08:18:42;45.24;40.53;55.71;;
4048;Laerm;2038;51.728;6.674;2023-01-20T08:21:22;45.70;39.58;55.37;;
4048;Laerm;2038;51.728;6.674;2023-01-20T08:23:50;42.55;39.46;52.26;;
4048;Laerm;2038;51.728;6.674;2023-01-20T08:26:17;44.54;40.23;56.24;;
4048;Laerm;2038;51.728;6.674;2023-01-20T08:28:44;45.18;40.36;56.56;;
4048;Laerm;2038;51.728;6.674;2023-01-20T08:31:17;44.57;40.33;58.29;;
4048;Laerm;2038;51.728;6.674;2023-01-20T08:33:44;46.52;40.13;62.22;;
4048;Laerm;2038;51.728;6.674;2023-01-20T08:36:17;44.04;40.23;52.81;;
4048;Laerm;2038;51.728;6.674;2023-01-20T08:38:45;46.65;40.62;58.37;;
4048;Laerm;2038;51.728;6.674;2023-01-20T08:41:23;44.70;40.33;54.44;;
4048;Laerm;2038;51.728;6.674;2023-01-20T08:43:49;44.48;40.23;54.16;;
4048;Laerm;2038;51.728;6.674;2023-01-20T08:46:19;44.39;39.81;53.35;;
4048;Laerm;2038;51.728;6.674;2023-01-20T08:48:47;49.00;40.80;62.79;;
4048;Laerm;2038;51.728;6.674;2023-01-20T08:51:21;45.63;40.33;55.34;;
4048;Laerm;2038;51.728;6.674;2023-01-20T08:53:48;45.53;40.03;54.99;;
4048;Laerm;2038;51.728;6.674;2023-01-20T08:56:15;44.73;40.23;56.62;;
4048;Laerm;2038;51.728;6.674;2023-01-20T08:58:42;47.98;40.23;60.12;;
4048;Laerm;2038;51.728;6.674;2023-01-20T09:01:13;45.38;39.70;57.46;;
4048;Laerm;2038;51.728;6.674;2023-01-20T09:03:40;44.32;40.03;53.42;;
4048;Laerm;2038;51.728;6.674;2023-01-20T09:06:07;44.49;39.92;60.63;;
4048;Laerm;2038;51.728;6.674;2023-01-20T09:08:34;48.65;40.33;62.70;;
4048;Laerm;2038;51.728;6.674;2023-01-20T09:11:12;45.66;40.53;61.48;;
4048;Laerm;2038;51.728;6.674;2023-01-20T09:13:38;44.55;40.23;54.57;;
4048;Laerm;2038;51.728;6.674;2023-01-20T09:16:05;48.11;39.81;62.54;;
4048;Laerm;2038;51.728;6.674;2023-01-20T09:18:33;47.56;39.92;59.46;;
4048;Laerm;2038;51.728;6.674;2023-01-20T09:21:01;46.66;40.13;58.62;;
4048;Laerm;2038;51.728;6.674;2023-01-20T09:23:33;47.60;40.33;58.65;;
4048;Laerm;2038;51.728;6.674;2023-01-20T09:26:01;45.15;40.33;54.56;;
4048;Laerm;2038;51.728;6.674;2023-01-20T09:28:28;44.59;40.62;53.62;;
4048;Laerm;2038;51.728;6.674;2023-01-20T09:31:04;44.60;40.36;54.76;;
4048;Laerm;2038;51.728;6.674;2023-01-20T09:33:33;44.49;40.53;52.95;;
4048;Laerm;2038;51.728;6.674;2023-01-20T09:36:02;50.53;40.33;63.12;;
4048;Laerm;2038;51.728;6.674;2023-01-20T09:38:29;46.35;39.70;58.58;;
4048;Laerm;2038;51.728;6.674;2023-01-20T09:41:26;47.41;40.13;60.86;;
4048;Laerm;2038;51.728;6.674;2023-01-20T09:44:37;46.17;40.89;56.33;;
4048;Laerm;2038;51.728;6.674;2023-01-20T09:47:27;47.44;40.71;59.82;;
4048;Laerm;2038;51.728;6.674;2023-01-20T09:54:02;47.72;40.03;63.51;;
4048;Laerm;2038;51.728;6.674;2023-01-20T09:56:38;45.16;40.03;54.58;;
4048;Laerm;2038;51.728;6.674;2023-01-20T09:59:14;46.12;40.13;58.84;;
4048;Laerm;2038;51.728;6.674;2023-01-20T10:01:47;45.80;40.43;55.15;;
4048;Laerm;2038;51.728;6.674;2023-01-20T10:04:37;46.74;40.43;59.03;;
4048;Laerm;2038;51.728;6.674;2023-01-20T10:07:42;44.32;40.43;54.36;;
4048;Laerm;2038;51.728;6.674;2023-01-20T10:10:30;45.18;40.03;55.93;;
4048;Laerm;2038;51.728;6.674;2023-01-20T10:13:27;44.86;40.13;56.10;;
4048;Laerm;2038;51.728;6.674;2023-01-20T10:16:03;45.08;40.33;55.33;;
4048;Laerm;2038;51.728;6.674;2023-01-20T10:18:50;48.50;40.89;62.30;;
4048;Laerm;2038;51.728;6.674;2023-01-20T10:21:49;43.80;40.71;54.37;;
4048;Laerm;2038;51.728;6.674;2023-01-20T10:24:27;44.97;40.80;56.74;;
4048;Laerm;2038;51.728;6.674;2023-01-20T10:27:03;45.21;40.53;57.43;;
4048;Laerm;2038;51.728;6.674;2023-01-20T10:29:42;46.33;40.80;58.01;;
4048;Laerm;2038;51.728;6.674;2023-01-20T10:32:32;45.84;40.62;59.41;;
4048;Laerm;2038;51.728;6.674;2023-01-20T10:35:17;44.42;40.98;52.49;;
4048;Laerm;2038;51.728;6.674;2023-01-20T10:37:44;50.78;40.71;67.20;;
4048;Laerm;2038;51.728;6.674;2023-01-20T10:40:37;45.59;40.71;61.04;;
4048;Laerm;2038;51.728;6.674;2023-01-20T10:43:15;44.73;40.98;55.65;;
4048;Laerm;2038;51.728;6.674;2023-01-20T10:52:38;44.44;40.23;55.52;;
4048;Laerm;2038;51.728;6.674;2023-01-20T10:55:37;44.88;40.62;56.62;;
4048;Laerm;2038;51.728;6.674;2023-01-20T10:58:24;45.12;40.13;56.13;;
4048;Laerm;2038;51.728;6.674;2023-01-20T11:00:53;45.60;40.80;60.93;;
4048;Laerm;2038;51.728;6.674;2023-01-20T11:03:22;46.25;40.71;55.45;;
4048;Laerm;2038;51.728;6.674;2023-01-20T11:05:50;44.36;40.53;52.88;;
4048;Laerm;2038;51.728;6.674;2023-01-20T11:08:26;43.90;40.62;53.28;;
4048;Laerm;2038;51.728;6.674;2023-01-20T11:11:12;44.10;40.43;56.13;;
4048;Laerm;2038;51.728;6.674;2023-01-20T11:13:39;44.58;40.62;54.25;;
4048;Laerm;2038;51.728;6.674;2023-01-20T11:16:29;45.48;40.89;58.43;;
4048;Laerm;2038;51.728;6.674;2023-01-20T11:19:05;43.67;40.71;52.14;;
4048;Laerm;2038;51.728;6.674;2023-01-20T11:21:34;43.62;40.71;52.19;;
4048;Laerm;2038;51.728;6.674;2023-01-20T11:24:37;45.84;40.53;55.87;;
4048;Laerm;2038;51.728;6.674;2023-01-20T11:27:13;46.29;41.14;59.19;;
4048;Laerm;2038;51.728;6.674;2023-01-20T11:29:48;44.66;40.98;53.26;;
4048;Laerm;2038;51.728;6.674;2023-01-20T11:32:36;43.38;40.43;51.89;;
4048;Laerm;2038;51.728;6.674;2023-01-20T11:35:25;44.87;40.43;56.90;;
4048;Laerm;2038;51.728;6.674;2023-01-20T11:37:51;45.27;40.53;55.84;;
4048;Laerm;2038;51.728;6.674;2023-01-20T11:40:25;47.10;40.80;59.32;;
4048;Laerm;2038;51.728;6.674;2023-01-20T11:42:52;45.38;40.71;57.35;;
4048;Laerm;2038;51.728;6.674;2023-01-20T11:45:28;44.92;40.62;54.50;;
4048;Laerm;2038;51.728;6.674;2023-01-20T11:50:41;45.17;40.43;54.33;;
4048;Laerm;2038;51.728;6.674;2023-01-20T11:56:02;43.53;40.89;51.88;;
4048;Laerm;2038;51.728;6.674;2023-01-20T11:58:56;44.55;40.43;57.63;;
4048;Laerm;2038;51.728;6.674;2023-01-20T12:01:28;46.01;40.62;55.38;;
4048;Laerm;2038;51.728;6.674;2023-01-20T12:07:10;43.24;39.21;51.40;;
4048;Laerm;2038;51.728;6.674;2023-01-20T12:09:42;44.29;40.23;52.63;;
4048;Laerm;2038;51.728;6.674;2023-01-20T12:12:24;47.02;40.33;59.28;;
4048;Laerm;2038;51.728;6.674;2023-01-20T12:15:19;43.89;39.81;56.16;;
4048;Laerm;2038;51.728;6.674;2023-01-20T12:18:21;45.47;39.92;56.56;;
4048;Laerm;2038;51.728;6.674;2023-01-20T12:21:04;45.80;39.58;58.34;;
4048;Laerm;2038;51.728;6.674;2023-01-20T12:24:11;44.40;40.03;55.29;;
4048;Laerm;2038;51.728;6.674;2023-01-20T12:26:43;46.48;40.53;61.16;;
4048;Laerm;2038;51.728;6.674;2023-01-20T12:29:37;45.94;40.13;62.50;;
4048;Laerm;2038;51.728;6.674;2023-01-20T12:32:09;45.55;40.23;57.37;;
4048;Laerm;2038;51.728;6.674;2023-01-20T12:34:36;47.47;40.43;62.51;;
4048;Laerm;2038;51.728;6.674;2023-01-20T12:40:34;45.82;39.08;61.40;;
4048;Laerm;2038;51.728;6.674;2023-01-20T12:43:40;46.36;39.58;61.93;;
4048;Laerm;2038;51.728;6.674;2023-01-20T12:46:32;45.69;40.33;65.01;;
4048;Laerm;2038;51.728;6.674;2023-01-20T12:52:33;45.63;39.34;63.33;;
4048;Laerm;2038;51.728;6.674;2023-01-20T12:55:18;44.75;39.81;55.21;;
4048;Laerm;2038;51.728;6.674;2023-01-20T12:58:17;43.20;39.46;55.11;;
4048;Laerm;2038;51.728;6.674;2023-01-20T13:01:20;45.93;39.58;63.36;;
4048;Laerm;2038;51.728;6.674;2023-01-20T13:04:10;45.18;40.13;57.64;;
4048;Laerm;2038;51.728;6.674;2023-01-20T13:07:10;49.04;39.46;63.01;;
4048;Laerm;2038;51.728;6.674;2023-01-20T13:09:53;47.30;39.70;62.36;;
4048;Laerm;2038;51.728;6.674;2023-01-20T13:15:45;46.30;39.81;55.67;;
4048;Laerm;2038;51.728;6.674;2023-01-20T13:18:33;45.23;39.70;52.77;;
4048;Laerm;2038;51.728;6.674;2023-01-20T13:21:00;44.98;39.92;55.05;;
4048;Laerm;2038;51.728;6.674;2023-01-20T13:23:33;45.97;40.13;56.11;;
4048;Laerm;2038;51.728;6.674;2023-01-20T13:26:03;44.65;40.13;55.11;;
4048;Laerm;2038;51.728;6.674;2023-01-20T13:28:31;47.06;40.13;57.22;;
4048;Laerm;2038;51.728;6.674;2023-01-20T13:30:59;45.57;39.58;55.94;;
4048;Laerm;2038;51.728;6.674;2023-01-20T13:33:39;47.66;39.21;62.37;;
4048;Laerm;2038;51.728;6.674;2023-01-20T13:36:19;46.49;39.70;57.66;;
4048;Laerm;2038;51.728;6.674;2023-01-20T13:39:44;46.33;39.57;58.43;;
4048;Laerm;2038;51.728;6.674;2023-01-20T13:50:35;45.07;39.34;58.67;;
4048;Laerm;2038;51.728;6.674;2023-01-20T13:53:12;47.03;39.57;58.75;;
4048;Laerm;2038;51.728;6.674;2023-01-20T13:58:20;46.28;39.58;62.66;;
4048;Laerm;2038;51.728;6.674;2023-01-20T14:00:51;45.80;39.70;62.98;;
4048;Laerm;2038;51.728;6.674;2023-01-20T14:08:42;48.49;38.67;65.23;;
4048;Laerm;2038;51.728;6.674;2023-01-20T14:11:13;45.05;39.34;55.64;;
4048;Laerm;2038;51.728;6.674;2023-01-20T14:13:42;47.70;39.58;61.16;;
4048;Laerm;2038;51.728;6.674;2023-01-20T14:16:24;46.59;39.58;58.04;;
4048;Laerm;2038;51.728;6.674;2023-01-20T14:18:54;45.81;39.70;54.54;;
4048;Laerm;2038;51.728;6.674;2023-01-20T14:21:25;45.37;39.46;54.48;;
4048;Laerm;2038;51.728;6.674;2023-01-20T14:23:52;45.56;39.70;59.12;;
4048;Laerm;2038;51.728;6.674;2023-01-20T14:26:26;44.09;39.34;53.60;;
4048;Laerm;2038;51.728;6.674;2023-01-20T14:28:55;46.20;39.34;57.20;;
4048;Laerm;2038;51.728;6.674;2023-01-20T14:36:49;50.90;38.95;64.28;;
4048;Laerm;2038;51.728;6.674;2023-01-20T14:39:25;46.75;39.08;58.83;;
4048;Laerm;2038;51.728;6.674;2023-01-20T14:41:56;44.51;39.21;55.52;;
4048;Laerm;2038;51.728;6.674;2023-01-20T14:44:26;45.53;38.81;54.96;;
4048;Laerm;2038;51.728;6.674;2023-01-20T14:46:56;45.14;39.46;55.28;;
4048;Laerm;2038;51.728;6.674;2023-01-20T14:49:34;44.82;38.67;59.96;;
4048;Laerm;2038;51.728;6.674;2023-01-20T14:52:03;45.56;38.95;55.90;;
4048;Laerm;2038;51.728;6.674;2023-01-20T14:54:43;46.66;38.52;56.92;;
4048;Laerm;2038;51.728;6.674;2023-01-20T14:57:31;43.76;39.08;52.75;;
4048;Laerm;2038;51.728;6.674;2023-01-20T15:00:26;49.43;38.21;65.83;;
4048;Laerm;2038;51.728;6.674;2023-01-20T15:06:18;47.74;39.46;62.05;;
4048;Laerm;2038;51.728;6.674;2023-01-20T15:08:48;44.34;38.67;55.47;;
4048;Laerm;2038;51.728;6.674;2023-01-20T15:21:54;48.30;38.81;63.91;;
4048;Laerm;2038;51.728;6.674;2023-01-20T15:24:31;48.83;38.81;62.40;;
4048;Laerm;2038;51.728;6.674;2023-01-20T15:27:01;50.11;38.52;65.03;;
4048;Laerm;2038;51.728;6.674;2023-01-20T15:29:33;45.01;38.37;57.77;;
4048;Laerm;2038;51.728;6.674;2023-01-20T15:32:09;46.59;38.21;55.61;;
4048;Laerm;2038;51.728;6.674;2023-01-20T15:34:36;44.96;38.37;58.50;;
4048;Laerm;2038;51.728;6.674;2023-01-20T15:37:08;44.28;37.87;55.38;;
4048;Laerm;2038;51.728;6.674;2023-01-20T15:39:36;46.67;37.52;58.98;;
4048;Laerm;2038;51.728;6.674;2023-01-20T15:42:02;45.43;38.67;56.12;;
4048;Laerm;2038;51.728;6.674;2023-01-20T15:44:28;47.17;37.32;56.92;;
4048;Laerm;2038;51.728;6.674;2023-01-20T15:46:55;49.81;38.37;65.01;;
4048;Laerm;2038;51.728;6.674;2023-01-20T15:49:21;47.13;38.52;61.46;;
4048;Laerm;2038;51.728;6.674;2023-01-20T15:51:47;46.86;38.67;58.38;;
4048;Laerm;2038;51.728;6.674;2023-01-20T15:54:13;45.14;38.37;58.09;;
4048;Laerm;2038;51.728;6.674;2023-01-20T15:56:41;46.90;37.88;65.65;;
4048;Laerm;2038;51.728;6.674;2023-01-20T15:59:17;45.04;38.37;55.14;;
4048;Laerm;2038;51.728;6.674;2023-01-20T16:01:45;46.47;38.05;58.50;;